createdAt,value
2022-10-05T00:00:40.302Z,4.78
2022-10-05T00:04:41.021Z,4.8
2022-10-05T00:08:40.514Z,5.1
2022-10-05T00:12:40.965Z,4.37
2022-10-05T00:16:41.290Z,4.75
2022-10-05T00:20:40.320Z,4.93
2022-10-05T00:24:40.203Z,5.2
2022-10-05T00:28:40.347Z,4.25
2022-10-05T00:32:40.622Z,4.6
2022-10-05T00:36:40.094Z,3.58
2022-10-05T00:40:40.982Z,3.92
2022-10-05T00:44:40.413Z,4.07
2022-10-05T00:48:40.536Z,3.67
2022-10-05T00:52:40.291Z,3.7
2022-10-05T00:56:40.931Z,4.25
2022-10-05T01:00:40.373Z,3.8
2022-10-05T01:04:40.561Z,3.92
2022-10-05T01:08:40.501Z,3.7
2022-10-05T01:12:40.740Z,3.72
2022-10-05T01:16:40.690Z,3.85
2022-10-05T01:20:40.582Z,3.53
2022-10-05T01:24:40.564Z,3.65
2022-10-05T01:28:40.701Z,4.97
2022-10-05T01:32:40.472Z,4.43
2022-10-05T01:36:40.500Z,3.53
2022-10-05T01:40:40.051Z,3.75
2022-10-05T01:44:40.761Z,4
2022-10-05T01:48:40.061Z,3.95
2022-10-05T01:52:40.951Z,3.87
2022-10-05T01:56:40.679Z,3.85
2022-10-05T02:00:40.591Z,3.55
2022-10-05T02:08:40.368Z,3.33
2022-10-05T02:12:40.551Z,4.32
2022-10-05T02:16:40.691Z,3.53
2022-10-05T02:20:40.464Z,4.15
2022-10-05T02:24:40.448Z,3.95
2022-10-05T02:28:40.604Z,4.2
2022-10-05T02:32:40.518Z,3.75
2022-10-05T02:36:40.447Z,4.47
2022-10-05T02:40:40.476Z,4.22
2022-10-05T02:44:40.799Z,4.32
2022-10-05T02:48:40.468Z,3.95
2022-10-05T02:52:39.900Z,4.82
2022-10-05T02:56:40.609Z,4.82
2022-10-05T03:00:40.747Z,5.8
2022-10-05T03:04:40.505Z,4.97
2022-10-05T03:08:40.539Z,5.57
2022-10-05T03:12:40.532Z,4.5
2022-10-05T03:16:40.806Z,4.87
2022-10-05T03:20:40.518Z,4.85
2022-10-05T03:24:40.660Z,5.3
2022-10-05T03:28:41.002Z,5.7
2022-10-05T03:32:40.490Z,4.82
2022-10-05T03:36:40.561Z,4.68
2022-10-05T03:40:40.566Z,6.03
2022-10-05T03:44:40.652Z,5.1
2022-10-05T03:48:40.685Z,5.87
2022-10-05T03:52:40.435Z,5.28
2022-10-05T03:56:41.019Z,4.87
2022-10-05T04:00:40.594Z,4.47
2022-10-05T04:04:40.635Z,5.17
2022-10-05T04:08:44.133Z,4.95
2022-10-05T04:12:40.416Z,5.1
2022-10-05T04:16:40.569Z,5.05
2022-10-05T04:20:40.495Z,5.87
2022-10-05T04:24:40.551Z,6.1
2022-10-05T04:28:40.726Z,5.05
2022-10-05T04:32:41.247Z,5.72
2022-10-05T04:36:40.460Z,5.9
2022-10-05T04:40:40.852Z,5.9
2022-10-05T04:44:41.168Z,5.47
2022-10-05T04:48:40.717Z,6.7
2022-10-05T04:52:40.074Z,5.93
2022-10-05T04:56:40.971Z,5.3
2022-10-05T05:00:40.532Z,6.43
2022-10-05T05:04:40.579Z,7.87
2022-10-05T05:08:40.171Z,6.05
2022-10-05T05:12:40.241Z,5.85
2022-10-05T05:16:41.346Z,6.7
2022-10-05T05:20:41.112Z,5.8
2022-10-05T05:24:40.548Z,5.55
2022-10-05T05:28:40.658Z,5.57
2022-10-05T05:32:40.370Z,5.37
2022-10-05T05:36:40.560Z,5.87
2022-10-05T05:40:40.521Z,5.25
2022-10-05T05:44:40.498Z,5.15
2022-10-05T05:48:40.446Z,4.1
2022-10-05T05:52:40.343Z,4.55
2022-10-05T05:56:40.515Z,4.47
2022-10-05T06:00:40.902Z,3.87
2022-10-05T06:04:40.698Z,4.03
2022-10-05T06:08:40.542Z,4.35
2022-10-05T06:12:40.344Z,4.2
2022-10-05T06:16:40.753Z,4.65
2022-10-05T06:20:40.276Z,3.78
2022-10-05T06:24:40.832Z,3.35
2022-10-05T06:28:40.785Z,2.72
2022-10-05T06:32:40.578Z,1.92
2022-10-05T06:36:40.763Z,2.33
2022-10-05T06:40:40.630Z,2.65
2022-10-05T06:44:40.537Z,2.28
2022-10-05T06:48:40.475Z,2.03
2022-10-05T06:52:40.467Z,2.3
2022-10-05T06:56:40.674Z,1.83
2022-10-05T07:00:40.807Z,2.1
2022-10-05T07:04:40.509Z,1.75
2022-10-05T07:08:40.486Z,1.8
2022-10-05T07:12:40.465Z,2.28
2022-10-05T07:16:40.662Z,2.2
2022-10-05T07:20:42.732Z,1.75
2022-10-05T07:24:40.427Z,1.95
2022-10-05T07:28:40.487Z,1.9
2022-10-05T07:32:40.544Z,2.33
2022-10-05T07:36:41.161Z,2.1
2022-10-05T07:40:40.702Z,2.05
2022-10-05T07:44:40.681Z,1.98
2022-10-05T07:48:40.403Z,1.83
2022-10-05T07:52:40.639Z,1.8
2022-10-05T07:56:41.137Z,2.33
2022-10-05T08:00:40.496Z,1.9
2022-10-05T08:04:41.996Z,1.95
2022-10-05T08:08:40.501Z,2.62
2022-10-05T08:12:40.603Z,1.6
2022-10-05T08:16:40.698Z,1.95
2022-10-05T08:20:39.700Z,1.83
2022-10-05T08:24:40.523Z,1.67
2022-10-05T08:28:40.541Z,1.67
2022-10-05T08:32:40.458Z,1.92
2022-10-05T08:36:41.132Z,2.12
2022-10-05T08:40:40.540Z,2
2022-10-05T08:44:40.033Z,1.8
2022-10-05T08:48:41.242Z,1.9
2022-10-05T08:52:41.073Z,2
2022-10-05T08:56:40.584Z,1.8
2022-10-05T09:00:40.513Z,1.75
2022-10-05T09:04:40.608Z,2
2022-10-05T09:08:40.588Z,1.95
2022-10-05T09:12:41.094Z,2.1
2022-10-05T09:16:41.023Z,2.15
2022-10-05T09:20:41.144Z,2.5
2022-10-05T09:24:39.557Z,2.1
2022-10-05T09:28:40.634Z,2.12
2022-10-05T09:32:40.581Z,2.22
2022-10-05T09:36:40.600Z,2.3
2022-10-05T09:40:40.653Z,1.33
2022-10-05T09:44:40.457Z,1.7
2022-10-05T09:48:39.448Z,2.17
2022-10-05T09:52:40.482Z,2.3
2022-10-05T09:56:41.166Z,2.12
2022-10-05T10:00:40.626Z,1.92
2022-10-05T10:04:40.446Z,2.17
2022-10-05T10:08:40.858Z,1.95
2022-10-05T10:12:40.618Z,1.7
2022-10-05T10:16:41.248Z,1.75
2022-10-05T10:20:40.458Z,3.55
2022-10-05T10:24:40.427Z,1.95
2022-10-05T10:28:40.690Z,2.62
2022-10-05T10:32:40.668Z,1.9
2022-10-05T10:36:40.352Z,2.15
2022-10-05T10:40:40.485Z,1.5
2022-10-05T10:44:40.619Z,2.28
2022-10-05T10:48:40.548Z,2.83
2022-10-05T10:52:40.499Z,1.9
2022-10-05T10:56:40.482Z,1.77
2022-10-05T11:00:40.889Z,2.15
2022-10-05T11:04:40.751Z,2.15
2022-10-05T11:08:40.428Z,1.8
2022-10-05T11:12:40.627Z,1.92
2022-10-05T11:16:40.320Z,2.55
2022-10-05T11:20:40.600Z,1.5
2022-10-05T11:24:40.585Z,1.45
2022-10-05T11:28:40.692Z,1.9
2022-10-05T11:32:40.614Z,2.05
2022-10-05T11:36:40.525Z,1.67
2022-10-05T11:40:40.656Z,1.5
2022-10-05T11:44:40.582Z,1.73
2022-10-05T11:48:40.468Z,2.3
2022-10-05T11:52:41.099Z,1.6
2022-10-05T11:56:40.447Z,1.6
2022-10-05T12:00:40.564Z,2
2022-10-05T12:04:41.137Z,2
2022-10-05T12:08:40.472Z,1.65
2022-10-05T12:12:40.837Z,1.6
2022-10-05T12:16:39.842Z,1.45
2022-10-05T12:20:40.971Z,1.6
2022-10-05T12:24:40.501Z,2.1
2022-10-05T12:28:40.557Z,1.5
2022-10-05T12:32:40.453Z,1.73
2022-10-05T12:37:03.147Z,1.62
2022-10-05T12:40:41.206Z,1.2
2022-10-05T12:44:40.502Z,1.08
2022-10-05T12:48:40.449Z,1.1
2022-10-05T12:52:41.140Z,1.77
2022-10-05T12:56:40.707Z,1.17
2022-10-05T13:00:40.790Z,1.4
2022-10-05T13:04:40.442Z,1.6
2022-10-05T13:08:40.529Z,1.73
2022-10-05T13:12:40.757Z,1.55
2022-10-05T13:16:39.928Z,2.2
2022-10-05T13:20:41.310Z,1.5
2022-10-05T13:24:40.470Z,1.6
2022-10-05T13:28:40.509Z,1.8
2022-10-05T13:32:40.249Z,2.45
2022-10-05T13:36:40.587Z,2.25
2022-10-05T13:40:40.581Z,1.62
2022-10-05T13:44:40.546Z,1.83
2022-10-05T13:48:40.867Z,2
2022-10-05T13:52:40.675Z,1.62
2022-10-05T13:56:39.559Z,2.33
2022-10-05T14:00:40.611Z,2.22
2022-10-05T14:04:40.292Z,2.33
2022-10-05T14:08:40.416Z,2.22
2022-10-05T14:12:40.727Z,2.17
2022-10-05T14:16:39.990Z,2.3
2022-10-05T14:20:40.867Z,2.67
2022-10-05T14:24:45.005Z,2.15
2022-10-05T14:28:40.513Z,2.03
2022-10-05T14:32:41.068Z,3
2022-10-05T14:36:39.566Z,2.6
2022-10-05T14:40:40.483Z,2.58
2022-10-05T14:44:40.664Z,3.4
2022-10-05T14:48:40.675Z,2.95
2022-10-05T14:52:40.580Z,2.5
2022-10-05T14:56:40.646Z,2.8
2022-10-05T15:00:40.794Z,2.3
2022-10-05T15:04:40.941Z,2.9
2022-10-05T15:08:40.883Z,2.5
2022-10-05T15:12:40.474Z,3.22
2022-10-05T15:16:40.656Z,2.47
2022-10-05T15:20:40.573Z,2.75
2022-10-05T15:24:43.611Z,3.03
2022-10-05T15:28:40.723Z,3.12
2022-10-05T15:32:40.858Z,3.83
2022-10-05T15:36:40.624Z,2.9
2022-10-05T15:40:40.552Z,2.72
2022-10-05T15:44:40.468Z,2.72
2022-10-05T15:48:40.421Z,2.75
2022-10-05T15:52:40.426Z,3.03
2022-10-05T15:56:41.038Z,3.33
2022-10-05T16:00:40.549Z,3.62
2022-10-05T16:04:40.418Z,3.65
2022-10-05T16:08:40.620Z,3.5
2022-10-05T16:12:39.465Z,2.8
2022-10-05T16:16:41.078Z,2.85
2022-10-05T16:20:40.571Z,2.95
2022-10-05T16:24:40.520Z,3.5
2022-10-05T16:28:40.936Z,3.4
2022-10-05T16:32:40.297Z,3.03
2022-10-05T16:36:39.576Z,3.4
2022-10-05T16:40:40.621Z,3.2
2022-10-05T16:44:40.369Z,2.9
2022-10-05T16:48:41.690Z,3.12
2022-10-05T16:52:40.545Z,3.37
2022-10-05T16:56:40.538Z,3.4
2022-10-05T17:00:40.591Z,3.67
2022-10-05T17:04:40.951Z,3.5
2022-10-05T17:08:40.565Z,3.65
2022-10-05T17:12:40.815Z,2.97
2022-10-05T17:16:40.889Z,3.15
2022-10-05T17:20:42.826Z,4.1
2022-10-05T17:24:40.650Z,3.75
2022-10-05T17:28:40.444Z,3.55
2022-10-05T17:32:40.399Z,3.78
2022-10-05T17:36:40.205Z,4.12
2022-10-05T17:40:40.714Z,3.42
2022-10-05T17:44:40.493Z,4.22
2022-10-05T17:48:40.490Z,5
2022-10-05T17:52:40.403Z,8.38
2022-10-05T17:56:40.686Z,10.3
2022-10-05T18:00:40.531Z,8.43
2022-10-05T18:04:40.592Z,7.35
2022-10-05T18:08:40.495Z,5.35
2022-10-05T18:12:40.543Z,6.85
2022-10-05T18:16:40.478Z,6.43
2022-10-05T18:20:40.753Z,5.68
2022-10-05T18:24:40.503Z,9.93
2022-10-05T18:28:40.734Z,4.8
2022-10-05T18:32:40.619Z,4.3
2022-10-05T18:36:40.587Z,4.85
2022-10-05T18:40:40.509Z,4.25
2022-10-05T18:44:40.736Z,4.8
2022-10-05T18:48:39.397Z,5.07
2022-10-05T18:52:40.490Z,3.62
2022-10-05T18:56:40.539Z,4.28
2022-10-05T19:00:40.630Z,5
2022-10-05T19:04:40.442Z,5.4
2022-10-05T19:08:41.156Z,5.6
2022-10-05T19:12:41.610Z,4.97
2022-10-05T19:16:40.716Z,5.55
2022-10-05T19:20:40.579Z,5.87
2022-10-05T19:24:40.723Z,5.18
2022-10-05T19:28:40.368Z,6.7
2022-10-05T19:32:40.970Z,4.53
2022-10-05T19:36:40.459Z,4.57
2022-10-05T19:40:41.051Z,4.93
2022-10-05T19:44:40.548Z,4.95
2022-10-05T19:48:40.526Z,5.32
2022-10-05T19:52:40.609Z,5.18
2022-10-05T19:56:40.460Z,5.5
2022-10-05T20:00:40.927Z,5.22
2022-10-05T20:04:41.045Z,5.05
2022-10-05T20:08:40.444Z,4.45
2022-10-05T20:12:40.524Z,4.5
2022-10-05T20:16:40.886Z,5.15
2022-10-05T20:20:43.257Z,3.85
2022-10-05T20:24:40.458Z,4.35
2022-10-05T20:28:40.523Z,4.55
2022-10-05T20:32:40.628Z,4.28
2022-10-05T20:36:40.606Z,4.1
2022-10-05T20:40:40.545Z,4.4
2022-10-05T20:44:40.798Z,4.82
2022-10-05T20:48:40.461Z,3.8
2022-10-05T20:52:39.885Z,3.2
2022-10-05T20:56:40.579Z,3.67
2022-10-05T21:00:41.206Z,4.05
2022-10-05T21:04:41.540Z,4.07
2022-10-05T21:08:40.511Z,3.75
2022-10-05T21:12:40.462Z,3.75
2022-10-05T21:16:40.968Z,3.62
2022-10-05T21:20:40.567Z,3.75
2022-10-05T21:24:40.310Z,3.83
2022-10-05T21:28:40.932Z,4.28
2022-10-05T21:32:44.445Z,3.75
2022-10-05T21:36:40.496Z,3.5
2022-10-05T21:40:40.539Z,3.35
2022-10-05T21:44:40.480Z,3.72
2022-10-05T21:48:40.486Z,4.05
2022-10-05T21:52:40.531Z,3.87
2022-10-05T21:56:41.223Z,3.28
2022-10-05T22:00:40.641Z,3.87
2022-10-05T22:04:40.467Z,3.37
2022-10-05T22:08:40.983Z,3.15
2022-10-05T22:12:40.618Z,3.42
2022-10-05T22:16:40.545Z,4.07
2022-10-05T22:20:40.508Z,3.58
2022-10-05T22:24:40.518Z,3.03
2022-10-05T22:28:40.835Z,3.58
2022-10-05T22:32:40.460Z,3.97
2022-10-05T22:36:41.113Z,3.97
2022-10-05T22:40:40.495Z,3.03
2022-10-05T22:44:40.586Z,3.22
2022-10-05T22:48:41.213Z,3.25
2022-10-05T22:52:40.472Z,3.65
2022-10-05T22:56:40.545Z,4.4
2022-10-05T23:00:57.588Z,3.15
2022-10-05T23:04:41.199Z,3.5
2022-10-05T23:08:40.497Z,3.78
2022-10-05T23:12:40.498Z,3.05
2022-10-05T23:16:40.613Z,3.8
2022-10-05T23:20:40.547Z,3.25
2022-10-05T23:24:40.476Z,3.95
2022-10-05T23:28:40.629Z,3.5
2022-10-05T23:32:40.833Z,3.3
2022-10-05T23:36:40.259Z,3.5
2022-10-05T23:40:40.963Z,3.12
2022-10-05T23:44:40.419Z,3.15
2022-10-05T23:48:40.659Z,3.28
2022-10-05T23:52:40.732Z,3.17
2022-10-05T23:56:40.358Z,3.12
